»·PEaware :: SAS821 KDEN-KPHX

SAS821 :: KDEN-KPHX

FLIGHT INFORMATION

Flight Status: Arrived
Operator:
SAS
More flights by this operator :: More flights under this callsign
Pilot: Andre N. (13929)
Aircraft: AIRBUS A320
(A320)
More flights by this aircraft type
Origin: KDEN Denver Intl
United States
Destination: KPHX Phoenix Sky Harbor Intl
United States
More flights between these airports :: More routes between these airports
Route: SOLAR3 DAAYE GUP EAGUL6
File this flight plan on PilotEdge
Remarks:
Altitude:
(Current/Filed)
38,000ft
Speed:
(Current/Filed)
450kts
Departed: 16-May-18 09:24 AM
Arrived: 16-May-18 10:57 AM
Distance/Time
Traveled:
522nm/1:33
Distance/Time
To Go:
Arrived

Flight Plot

Page will automatically refresh every two minutes.


Map Options




Map Legend


Flown Route
Filed Route
Departure Airport
Arrival Airport
Navaid (VOR, NDB)
Fix

Horizontal Profiles

Position Reports

Time Latitude Longitude Heading Altitude Ground
Speed
16-May-18 09:05 39.858081 -104.676784 351 5325ft 0kts
16-May-18 09:06 39.858081 -104.676784 351 5325ft 0kts
16-May-18 09:07 39.858081 -104.676784 351 5325ft 0kts
16-May-18 09:08 39.858081 -104.676784 351 5325ft 0kts
16-May-18 09:09 39.858081 -104.676784 351 5325ft 0kts
16-May-18 09:10 39.858081 -104.676784 351 5325ft 0kts
16-May-18 09:11 39.858081 -104.676784 351 5325ft 0kts
16-May-18 09:12 39.858080 -104.676784 351 5325ft 0kts
16-May-18 09:13 39.857612 -104.676703 357 5325ft 2kts
16-May-18 09:14 39.857231 -104.677094 78 5325ft 2kts
16-May-18 09:15 39.857223 -104.677259 89 5325ft 0kts
16-May-18 09:16 39.857223 -104.677259 89 5325ft 0kts
16-May-18 09:17 39.857238 -104.675816 89 5325ft 0kts
16-May-18 09:18 39.857234 -104.670817 90 5325ft 22kts
16-May-18 09:19 39.856741 -104.664697 90 5325ft 3kts
16-May-18 09:20 39.856741 -104.664691 90 5325ft 0kts
16-May-18 09:21 39.858591 -104.662309 359 5325ft 20kts
16-May-18 09:22 39.860993 -104.661829 79 5325ft 0kts
16-May-18 09:23 39.860998 -104.660771 101 5325ft 10kts
16-May-18 09:24 39.847027 -104.660316 181 5358ft 157kts
16-May-18 09:25 39.797214 -104.663779 198 8015ft 210kts
16-May-18 09:26 39.735789 -104.687800 197 11264ft 241kts
16-May-18 09:27 39.662486 -104.697000 183 13435ft 307kts
16-May-18 09:28 39.568335 -104.703691 184 15409ft 358kts
16-May-18 09:29 39.467803 -104.710331 184 18025ft 371kts
16-May-18 09:30 39.369436 -104.745392 204 20332ft 379kts
16-May-18 09:31 39.283782 -104.819069 235 22416ft 382kts
16-May-18 09:32 39.220488 -104.930269 235 24339ft 392kts
16-May-18 09:33 39.155318 -105.042403 229 26115ft 401kts
16-May-18 09:34 39.058677 -105.115987 209 27692ft 416kts
16-May-18 09:35 38.955495 -105.182111 210 29155ft 422kts
16-May-18 09:36 38.856821 -105.245287 210 30382ft 428kts
16-May-18 09:37 38.752684 -105.311758 210 31473ft 436kts
16-May-18 09:38 38.644189 -105.380776 211 32465ft 443kts
16-May-18 09:39 38.535682 -105.449564 211 33723ft 439kts
16-May-18 09:40 38.427441 -105.517980 211 34846ft 437kts
16-May-18 09:41 38.324256 -105.582997 206 35421ft 447kts
16-May-18 09:42 38.215064 -105.651569 207 36395ft 446kts
16-May-18 09:43 38.176244 -105.675872 207 36742ft 445kts
16-May-18 09:44 38.099513 -105.723872 207 37250ft 447kts
16-May-18 09:45 37.994912 -105.800231 225 37946ft 443kts
16-May-18 09:46 37.909394 -105.909299 226 38378ft 442kts
16-May-18 09:47 37.825372 -106.016378 226 38374ft 442kts
16-May-18 09:48 37.739226 -106.125804 226 38375ft 442kts
16-May-18 09:49 37.652726 -106.235297 226 38375ft 442kts
16-May-18 09:50 37.566094 -106.344576 226 38373ft 442kts
16-May-18 09:51 37.479668 -106.453217 226 38372ft 442kts
16-May-18 09:52 37.395369 -106.558821 227 38378ft 442kts
16-May-18 09:53 37.311358 -106.663709 226 38487ft 440kts
16-May-18 09:54 37.225963 -106.769974 226 38627ft 441kts
16-May-18 09:55 37.139588 -106.877089 225 38495ft 440kts
16-May-18 09:56 37.053213 -106.983839 225 38364ft 439kts
16-May-18 09:57 36.966324 -107.090868 225 38360ft 439kts
16-May-18 09:58 36.882046 -107.194337 225 38365ft 439kts
16-May-18 09:59 36.804395 -107.289367 225 38369ft 439kts
16-May-18 10:00 36.717169 -107.395777 225 38374ft 439kts
16-May-18 10:01 36.630725 -107.500870 227 38355ft 435kts
16-May-18 10:02 36.545112 -107.604617 227 38345ft 430kts
16-May-18 10:03 36.470744 -107.694474 226 38202ft 430kts
16-May-18 10:04 36.385020 -107.797740 226 38207ft 431kts
16-May-18 10:05 36.299136 -107.900853 226 38233ft 432kts
16-May-18 10:06 36.212921 -108.004029 226 38246ft 433kts
16-May-18 10:07 36.126352 -108.107293 226 38250ft 433kts
16-May-18 10:08 36.040000 -108.209967 226 38248ft 433kts
16-May-18 10:09 35.953383 -108.312627 226 38329ft 432kts
16-May-18 10:10 35.869555 -108.411668 227 38337ft 430kts
16-May-18 10:11 35.783188 -108.513394 226 38307ft 431kts
16-May-18 10:12 35.696603 -108.615056 226 38308ft 431kts
16-May-18 10:13 35.615177 -108.710368 226 38319ft 432kts
16-May-18 10:14 35.528359 -108.811678 226 38329ft 432kts
16-May-18 10:15 35.443311 -108.915087 229 38329ft 431kts
16-May-18 10:16 35.361130 -109.021534 229 38324ft 431kts
16-May-18 10:17 35.279173 -109.127369 229 38318ft 430kts
16-May-18 10:18 35.200001 -109.229294 229 38320ft 429kts
16-May-18 10:19 35.118239 -109.334230 229 38308ft 429kts
16-May-18 10:20 35.036154 -109.439262 229 38307ft 429kts
16-May-18 10:21 34.954105 -109.543918 229 38254ft 429kts
16-May-18 10:22 34.872923 -109.647143 229 38266ft 430kts
16-May-18 10:23 34.814364 -109.721526 228 38268ft 430kts
16-May-18 10:24 34.731671 -109.826795 229 38251ft 429kts
16-May-18 10:25 34.673459 -109.949273 247 36222ft 426kts
16-May-18 10:26 34.624479 -110.080617 246 34234ft 425kts
16-May-18 10:27 34.576232 -110.209390 246 32200ft 418kts
16-May-18 10:28 34.528230 -110.337095 246 30149ft 420kts
16-May-18 10:29 34.479151 -110.467155 246 28096ft 429kts
16-May-18 10:30 34.437723 -110.576453 246 26409ft 434kts
16-May-18 10:31 34.400937 -110.673198 245 24889ft 416kts
16-May-18 10:32 34.364697 -110.756943 231 24317ft 379kts
16-May-18 10:33 34.297221 -110.851538 230 23923ft 374kts
16-May-18 10:34 34.230223 -110.945278 230 22569ft 366kts
16-May-18 10:35 34.167622 -111.032697 229 21274ft 345kts
16-May-18 10:36 34.104125 -111.118193 227 19929ft 342kts
16-May-18 10:37 34.040235 -111.200212 227 18578ft 336kts
16-May-18 10:38 33.977670 -111.280342 227 17207ft 330kts
16-May-18 10:39 33.916799 -111.358098 227 15794ft 312kts
16-May-18 10:40 33.870039 -111.424262 238 14547ft 303kts
16-May-18 10:41 33.825314 -111.509692 238 13465ft 303kts
16-May-18 10:42 33.781240 -111.593281 237 13259ft 295kts
16-May-18 10:43 33.740203 -111.670167 237 12326ft 274kts
16-May-18 10:44 33.699523 -111.746407 237 11067ft 268kts
16-May-18 10:45 33.660868 -111.819303 237 10162ft 246kts
16-May-18 10:46 33.625493 -111.885867 237 9974ft 245kts
16-May-18 10:47 33.589602 -111.953339 237 9317ft 243kts
16-May-18 10:48 33.554375 -112.019424 237 8620ft 241kts
16-May-18 10:49 33.524939 -112.090658 269 7284ft 254kts
16-May-18 10:50 33.523791 -112.170104 261 7019ft 234kts
16-May-18 10:51 33.514212 -112.245728 261 6187ft 226kts
16-May-18 10:52 33.466608 -112.281980 158 4327ft 253kts
16-May-18 10:53 33.441415 -112.215775 90 3153ft 228kts
16-May-18 10:54 33.441089 -112.146534 90 3050ft 194kts
16-May-18 10:55 33.440728 -112.088867 90 2012ft 156kts
16-May-18 10:56 33.440900 -112.038717 90 1313ft 142kts
16-May-18 10:57 33.440340 -112.013595 171 1118ft 13kts
16-May-18 10:58 33.439854 -112.013359 126 1118ft 10kts
16-May-18 10:59 33.438335 -112.009927 160 1118ft 4kts
16-May-18 11:00 33.437853 -112.009315 105 1118ft 0kts

Navigation Log

Ident Type
1. KDEN Airport
2. GUP Navaid
3. SLIDR Fix
4. PAYSO Fix
5. EAGUL Fix
6. PICHR Fix
7. HOMRR Fix
8. QUENY Fix
9. HINEY Fix
10. BASBL Fix
11. KPHX Airport